Obetz, Ohio
Current Conditions -  °F | °C
As of 8:15 PM on Monday 20 Oct 2014 (Local Time) from KLCK Reporting Station
Broken Clouds Broken Clouds  
Wind Chill: 51°   Ceiling: 3700
Heat Index: 51°   Visibility: 10mi
Dew Point: 49°   Wind: 5mph
Humidity: 94%   Direction: 170°S
Pressure: 29.87"   Gusts: NA
Location:  39.8938°N, 82.9624°W
Report Text: KLCK 210015Z AUTO 17004KT 10SM BKN037 BKN060 BKN070 10/09 A2987 RMK AO2 LTG DSNT E T01030094
Loading
Personal Weather Stations






























Interactive Weather Map
Tropical Storm Tracking
New forecast layout! Learn more

10-Day Weather Forecast

Advertisements
Track Severe Weather on mobile